Time;durP1;ratioP1;P1;durP2;ratioP2;P2;SDS_P1;SDS_P2;PMS_P1;PMS_P2;Temp;Humidity;BMP_temperature;BMP_pressure;BME280_temperature;BME280_humidity;BME280_pressure;Samples;Min_cycle;Max_cycle;Signal;HPM_P1;HPM_P2
2023/10/25 00:01:26;;;;;;;0.40;0.40;;;8.90;99.90;;;;;;5117295;28;20048;-82
2023/10/25 00:03:51;;;;;;;0.52;0.50;;;8.80;99.90;;;;;;5116447;28;20101;-81
2023/10/25 00:06:17;;;;;;;0.50;0.50;;;8.80;99.90;;;;;;5082509;28;20424;-81
2023/10/25 00:08:43;;;;;;;0.60;0.60;;;8.80;99.90;;;;;;5099793;28;20047;-82
2023/10/25 00:11:09;;;;;;;0.95;0.95;;;8.80;99.90;;;;;;5082148;28;20382;-83
2023/10/25 00:13:35;;;;;;;0.40;0.40;;;8.80;99.90;;;;;;5117011;28;20051;-82
2023/10/25 00:16:02;;;;;;;0.60;0.60;;;8.80;99.90;;;;;;5116397;28;20047;-82
2023/10/25 00:18:29;;;;;;;0.50;0.50;;;8.80;99.90;;;;;;5098645;28;20122;-82
2023/10/25 00:20:55;;;;;;;0.50;0.50;;;8.80;99.90;;;;;;5082309;28;20096;-82
2023/10/25 00:23:21;;;;;;;0.50;0.50;;;8.80;99.90;;;;;;5099170;28;20404;-84
2023/10/25 00:25:48;;;;;;;0.52;0.52;;;8.70;99.90;;;;;;5082334;28;20054;-82
2023/10/25 00:28:14;;;;;;;0.50;0.50;;;8.70;99.90;;;;;;5099821;28;20055;-81
2023/10/25 00:30:40;;;;;;;0.60;0.60;;;8.70;99.90;;;;;;5133270;27;20169;-82
2023/10/25 00:33:06;;;;;;;1.35;0.60;;;8.70;99.90;;;;;;5098731;28;20101;-82
2023/10/25 00:35:32;;;;;;;0.40;0.40;;;8.70;99.90;;;;;;5132818;27;20046;-82
2023/10/25 00:37:58;;;;;;;0.50;0.50;;;8.60;99.90;;;;;;5133319;27;20127;-82
2023/10/25 00:40:23;;;;;;;0.57;0.57;;;8.60;99.90;;;;;;5133107;27;20051;-82
2023/10/25 00:42:49;;;;;;;0.50;0.50;;;8.60;99.90;;;;;;5099778;28;20048;-82
2023/10/25 00:45:15;;;;;;;0.73;0.73;;;8.60;99.90;;;;;;5098897;28;20048;-82
2023/10/25 00:47:42;;;;;;;0.40;0.40;;;8.50;99.90;;;;;;5098518;28;20105;-82
2023/10/25 00:50:10;;;;;;;0.40;0.40;;;8.60;99.90;;;;;;5098362;28;20084;-81
2023/10/25 00:52:39;;;;;;;0.80;0.80;;;8.60;99.90;;;;;;5098294;28;20051;-81
2023/10/25 00:55:08;;;;;;;0.40;0.40;;;8.50;99.90;;;;;;5099550;28;20070;-82
2023/10/25 00:57:34;;;;;;;0.50;0.50;;;8.50;99.90;;;;;;5099847;28;20047;-81
2023/10/25 01:00:00;;;;;;;12.10;1.02;;;8.50;99.90;;;;;;5139050;28;20061;-83
2023/10/25 01:02:27;;;;;;;1.23;1.13;;;8.40;99.90;;;;;;5121605;28;20051;-82
2023/10/25 01:04:53;;;;;;;0.40;0.40;;;8.50;99.90;;;;;;5107790;28;20340;-83
2023/10/25 01:07:19;;;;;;;0.47;0.47;;;8.40;99.90;;;;;;5098488;28;20065;-83
2023/10/25 01:09:46;;;;;;;0.40;0.40;;;8.40;99.90;;;;;;5118113;28;20547;-82
2023/10/25 01:12:11;;;;;;;0.52;0.52;;;8.40;99.90;;;;;;5098651;28;20043;-81
2023/10/25 01:14:37;;;;;;;0.50;0.50;;;8.30;99.90;;;;;;5098026;28;20069;-82
2023/10/25 01:17:03;;;;;;;0.40;0.40;;;8.30;99.90;;;;;;5100065;28;20131;-82
2023/10/25 01:19:29;;;;;;;0.50;0.50;;;8.30;99.90;;;;;;5097790;28;20039;-81
2023/10/25 01:21:54;;;;;;;0.50;0.50;;;8.20;99.90;;;;;;5080233;28;20058;-83
2023/10/25 01:24:21;;;;;;;0.68;0.68;;;8.20;99.90;;;;;;5097807;28;20040;-82
2023/10/25 01:26:47;;;;;;;0.60;0.60;;;8.20;99.90;;;;;;5097966;28;20084;-81
2023/10/25 01:29:13;;;;;;;1.10;1.00;;;8.20;99.90;;;;;;5114641;28;20525;-82
2023/10/25 01:31:38;;;;;;;0.95;0.95;;;8.20;99.90;;;;;;5081400;28;20063;-81
2023/10/25 01:34:04;;;;;;;0.77;0.77;;;8.20;99.90;;;;;;5098204;28;20120;-81
2023/10/25 01:36:30;;;;;;;5.38;1.10;;;8.20;99.90;;;;;;5097801;28;20047;-81
2023/10/25 01:38:55;;;;;;;0.52;0.52;;;8.10;99.90;;;;;;5097666;28;20044;-83
2023/10/25 01:41:21;;;;;;;0.60;0.60;;;8.10;99.90;;;;;;5097896;28;20109;-82
2023/10/25 01:43:47;;;;;;;0.50;0.50;;;8.10;99.90;;;;;;5080946;28;20475;-81
2023/10/25 01:46:13;;;;;;;0.98;0.98;;;8.10;99.90;;;;;;5097423;28;20047;-81
2023/10/25 01:48:38;;;;;;;0.32;0.32;;;8.00;99.90;;;;;;5131474;27;20044;-81
2023/10/25 01:51:08;;;;;;;0.50;0.50;;;8.00;99.90;;;;;;5097512;28;20050;-82
2023/10/25 01:53:34;;;;;;;0.43;0.43;;;8.00;99.90;;;;;;5080333;28;20039;-82
2023/10/25 01:56:00;;;;;;;0.40;0.40;;;8.00;99.90;;;;;;5097127;28;20448;-81
2023/10/25 01:58:26;;;;;;;1.10;1.05;;;6.80;99.90;;;;;;5080293;28;20047;-82
2023/10/25 02:00:51;;;;;;;1.17;0.77;;;8.00;99.90;;;;;;5097988;28;20046;-81
2023/10/25 02:03:17;;;;;;;0.50;0.50;;;8.00;99.90;;;;;;5097172;28;20165;-81
2023/10/25 02:05:43;;;;;;;0.40;0.40;;;8.10;99.90;;;;;;5080041;28;20052;-81
2023/10/25 02:08:09;;;;;;;0.60;0.60;;;8.00;99.90;;;;;;5080557;28;20425;-81
2023/10/25 02:10:34;;;;;;;0.35;0.35;;;8.00;99.90;;;;;;5131124;27;20105;-82
2023/10/25 02:13:00;;;;;;;1.00;0.80;;;8.00;99.90;;;;;;5097092;28;20066;-82
2023/10/25 02:15:27;;;;;;;5.15;1.13;;;8.00;99.90;;;;;;5114527;28;20047;-82
2023/10/25 02:17:53;;;;;;;0.40;0.40;;;8.00;99.90;;;;;;5096978;28;20086;-82
2023/10/25 02:20:19;;;;;;;0.50;0.50;;;7.90;99.90;;;;;;5097336;28;20075;-80
2023/10/25 02:22:45;;;;;;;0.45;0.45;;;7.90;99.90;;;;;;5080460;28;20047;-81
2023/10/25 02:25:11;;;;;;;0.50;0.50;;;8.00;99.90;;;;;;5114700;28;20063;-80
2023/10/25 02:27:36;;;;;;;0.90;0.90;;;7.90;99.90;;;;;;5079819;28;20039;-81
2023/10/25 02:30:03;;;;;;;0.40;0.40;;;7.90;99.90;;;;;;5096779;28;20083;-82
2023/10/25 02:32:30;;;;;;;0.50;0.50;;;7.90;99.90;;;;;;5097502;28;20082;-82
2023/10/25 02:34:56;;;;;;;1.95;1.85;;;7.90;99.90;;;;;;5080354;28;20055;-82
2023/10/25 02:37:21;;;;;;;6.45;2.55;;;7.90;99.90;;;;;;5080510;28;20043;-81
2023/10/25 02:39:47;;;;;;;0.40;0.40;;;7.90;99.90;;;;;;5080714;28;20463;-81
2023/10/25 02:42:13;;;;;;;0.50;0.50;;;7.90;99.90;;;;;;5117618;28;20047;-80
2023/10/25 02:44:39;;;;;;;0.80;0.63;;;7.90;99.90;;;;;;5101434;28;20393;-81
2023/10/25 02:47:06;;;;;;;0.50;0.50;;;7.90;99.90;;;;;;5101796;28;20055;-80
2023/10/25 02:49:33;;;;;;;0.52;0.52;;;7.80;99.90;;;;;;5124373;28;20073;-81
2023/10/25 02:51:59;;;;;;;0.50;0.50;;;7.90;99.90;;;;;;5123923;28;20028;-82
2023/10/25 02:54:25;;;;;;;1.17;1.17;;;7.80;99.90;;;;;;5110726;28;20046;-82
2023/10/25 02:56:51;;;;;;;0.40;0.40;;;7.80;99.90;;;;;;5102341;28;20539;-82
2023/10/25 02:59:16;;;;;;;0.75;0.75;;;7.80;99.90;;;;;;5118208;28;20048;-81
2023/10/25 03:01:43;;;;;;;2.42;0.95;;;7.80;99.90;;;;;;5084475;28;20096;-81
2023/10/25 03:04:09;;;;;;;0.45;0.45;;;7.80;99.90;;;;;;5083293;28;20044;-82
2023/10/25 03:06:34;;;;;;;1.55;1.50;;;7.80;99.90;;;;;;5101327;28;20055;-82
2023/10/25 03:09:00;;;;;;;1.05;0.95;;;7.80;99.90;;;;;;5100802;28;20036;-82
2023/10/25 03:11:26;;;;;;;0.60;0.60;;;7.80;99.90;;;;;;5083837;28;20044;-83
2023/10/25 03:13:51;;;;;;;0.45;0.45;;;7.80;99.90;;;;;;5083495;28;20488;-83
2023/10/25 03:16:17;;;;;;;0.45;0.45;;;7.70;99.90;;;;;;5100422;28;20084;-81
2023/10/25 03:18:43;;;;;;;0.60;0.60;;;7.70;99.90;;;;;;5100736;28;20043;-82
2023/10/25 03:21:08;;;;;;;0.60;0.60;;;7.70;99.90;;;;;;5117528;28;20043;-82
2023/10/25 03:23:34;;;;;;;0.50;0.50;;;7.70;99.90;;;;;;5117798;28;20136;-82
2023/10/25 03:26:07;;;;;;;0.70;0.70;;;7.70;99.90;;;;;;5084247;28;20387;-82
2023/10/25 03:28:33;;;;;;;0.50;0.50;;;7.70;99.90;;;;;;5100950;28;20027;-82
2023/10/25 03:31:06;;;;;;;;;;;7.60;99.90;;;;;;5083279;28;20043;-81
2023/10/25 03:33:32;;;;;;;0.43;0.43;;;7.60;99.90;;;;;;5116711;28;20388;-82
2023/10/25 03:35:57;;;;;;;0.40;0.40;;;7.60;99.90;;;;;;5100464;28;20048;-83
2023/10/25 03:38:23;;;;;;;0.50;0.50;;;7.60;99.90;;;;;;5099430;28;20088;-81
2023/10/25 03:40:59;;;;;;;0.77;0.77;;;7.60;99.90;;;;;;5101168;28;20049;-81
2023/10/25 03:43:24;;;;;;;0.68;0.68;;;7.60;99.90;;;;;;5083823;28;20040;-81
2023/10/25 03:45:50;;;;;;;0.50;0.50;;;7.60;99.90;;;;;;5134916;27;20101;-81
2023/10/25 03:48:17;;;;;;;0.40;0.40;;;7.50;99.90;;;;;;5099741;28;20548;-81
2023/10/25 03:50:43;;;;;;;0.70;0.70;;;7.50;99.90;;;;;;5082857;28;20052;-81
2023/10/25 03:53:08;;;;;;;0.50;0.50;;;7.50;99.90;;;;;;5133916;27;20070;-82
2023/10/25 03:55:34;;;;;;;0.60;0.60;;;7.50;99.90;;;;;;5082328;28;20083;-81
2023/10/25 03:58:00;;;;;;;0.70;0.70;;;7.50;99.90;;;;;;5116738;28;20048;-81
2023/10/25 04:00:26;;;;;;;4.18;0.93;;;7.50;99.90;;;;;;5133586;27;20055;-81
2023/10/25 04:02:52;;;;;;;3.72;1.30;;;7.50;99.90;;;;;;5099034;28;20047;-81
2023/10/25 04:05:18;;;;;;;1.02;1.00;;;7.50;99.90;;;;;;5099815;28;20070;-81
2023/10/25 04:07:44;;;;;;;1.08;1.02;;;7.50;99.90;;;;;;5099359;28;20049;-82
2023/10/25 04:10:09;;;;;;;4.03;3.65;;;7.50;99.90;;;;;;5083016;28;20051;-81
2023/10/25 04:12:35;;;;;;;3.20;1.67;;;7.50;99.90;;;;;;5082455;28;20047;-81
2023/10/25 04:15:01;;;;;;;1.20;1.15;;;7.40;99.90;;;;;;5133717;27;20430;-81
2023/10/25 04:17:26;;;;;;;1.85;1.75;;;7.60;99.90;;;;;;5133473;27;20047;-81
2023/10/25 04:19:52;;;;;;;1.23;0.88;;;7.50;99.90;;;;;;5100047;28;20509;-81
2023/10/25 04:22:19;;;;;;;1.40;1.40;;;7.60;99.90;;;;;;5082209;28;20120;-82
2023/10/25 04:24:44;;;;;;;0.85;0.85;;;7.60;99.90;;;;;;5082141;28;20130;-82
2023/10/25 04:27:10;;;;;;;0.65;0.65;;;7.60;99.90;;;;;;5099082;28;20513;-82
2023/10/25 04:29:36;;;;;;;0.73;0.70;;;7.60;99.90;;;;;;5133508;27;20039;-81
2023/10/25 04:32:03;;;;;;;0.60;0.60;;;7.50;99.90;;;;;;5099006;28;20051;-82
2023/10/25 04:34:29;;;;;;;0.85;0.85;;;7.50;99.90;;;;;;5099225;28;20167;-82
2023/10/25 04:36:55;;;;;;;0.70;0.70;;;7.40;99.90;;;;;;5099692;28;20143;-80
2023/10/25 04:39:20;;;;;;;0.57;0.57;;;7.50;99.90;;;;;;5104579;28;20058;-82
2023/10/25 04:41:47;;;;;;;0.40;0.40;;;7.40;99.90;;;;;;5104165;28;20061;-81
2023/10/25 04:44:14;;;;;;;0.50;0.50;;;7.50;99.90;;;;;;5094203;28;20082;-82
2023/10/25 04:46:40;;;;;;;0.95;0.95;;;7.40;99.90;;;;;;5099489;28;20096;-81
2023/10/25 04:49:05;;;;;;;0.50;0.50;;;7.40;99.90;;;;;;5099353;28;20456;-82
2023/10/25 04:51:31;;;;;;;0.63;0.63;;;7.40;99.90;;;;;;5115313;28;20416;-82
2023/10/25 04:53:57;;;;;;;0.68;0.68;;;7.40;99.90;;;;;;5098883;28;20077;-82
2023/10/25 04:56:23;;;;;;;0.70;0.70;;;7.40;99.90;;;;;;5097958;28;20055;-81
2023/10/25 04:58:49;;;;;;;0.60;0.60;;;7.50;99.90;;;;;;5098377;28;20058;-82
2023/10/25 05:01:15;;;;;;;0.60;0.60;;;7.50;99.90;;;;;;5115585;28;20512;-81
2023/10/25 05:03:44;;;;;;;1.83;1.73;;;7.50;99.90;;;;;;5081693;28;20459;-83
2023/10/25 05:06:10;;;;;;;1.08;1.08;;;7.50;99.90;;;;;;5098695;28;20075;-81
2023/10/25 05:08:36;;;;;;;0.68;0.68;;;7.50;99.90;;;;;;5097915;28;20055;-82
2023/10/25 05:11:05;;;;;;;0.60;0.60;;;7.50;99.90;;;;;;5114876;28;20479;-81
2023/10/25 05:13:31;;;;;;;1.38;1.38;;;9.00;99.90;;;;;;5098745;28;20069;-82
2023/10/25 05:15:58;;;;;;;0.73;0.73;;;7.40;99.90;;;;;;5098196;28;20115;-81
2023/10/25 05:18:23;;;;;;;;;;;7.40;99.90;;;;;;5081244;28;20051;-82
2023/10/25 05:21:01;;;;;;;2.00;0.70;;;7.30;99.90;;;;;;5098201;28;19919;-81
2023/10/25 05:23:28;;;;;;;0.50;0.50;;;7.30;99.90;;;;;;5077408;28;20105;-82
2023/10/25 05:25:54;;;;;;;0.70;0.70;;;7.30;99.90;;;;;;5115565;28;20051;-82
2023/10/25 05:28:20;;;;;;;0.75;0.75;;;7.20;99.90;;;;;;5081490;28;20066;-82
2023/10/25 05:30:50;;;;;;;0.90;0.60;;;7.20;99.90;;;;;;5097891;28;20180;-82
2023/10/25 05:33:19;;;;;;;0.52;0.52;;;7.20;99.90;;;;;;5096644;28;20077;-82
2023/10/25 05:35:45;;;;;;;0.50;0.50;;;7.20;99.90;;;;;;5079478;28;20063;-81
2023/10/25 05:38:11;;;;;;;0.70;0.70;;;7.20;99.90;;;;;;5079670;28;20043;-82
2023/10/25 05:40:37;;;;;;;0.45;0.45;;;7.10;99.90;;;;;;5096828;28;20046;-82
2023/10/25 05:43:05;;;;;;;;;;;7.10;99.90;;;;;;5097534;28;20435;-82
2023/10/25 05:45:31;;;;;;;0.52;0.52;;;7.00;99.90;;;;;;5097378;28;19968;-82
2023/10/25 05:47:57;;;;;;;0.68;0.68;;;7.00;99.90;;;;;;5080746;28;20130;-82
2023/10/25 05:50:23;;;;;;;0.57;0.57;;;7.00;99.90;;;;;;5097254;28;20043;-82
2023/10/25 05:52:49;;;;;;;0.40;0.40;;;6.90;99.90;;;;;;5080153;28;20043;-81
2023/10/25 05:55:16;;;;;;;0.68;0.68;;;6.90;99.90;;;;;;5096619;28;20393;-83
2023/10/25 05:57:42;;;;;;;0.68;0.68;;;6.90;99.90;;;;;;5096529;28;20047;-82
2023/10/25 06:00:08;;;;;;;0.50;0.50;;;6.80;99.90;;;;;;5079646;28;20049;-82
2023/10/25 06:02:34;;;;;;;1.98;1.85;;;6.80;99.90;;;;;;5078995;28;20436;-81
2023/10/25 06:05:01;;;;;;;0.50;0.50;;;6.80;99.90;;;;;;5079411;28;20044;-81
2023/10/25 06:07:27;;;;;;;2.05;0.70;;;6.80;99.90;;;;;;5096140;28;20076;-81
2023/10/25 06:09:55;;;;;;;0.40;0.40;;;6.80;99.90;;;;;;5096356;28;20047;-82
2023/10/25 06:12:22;;;;;;;0.55;0.55;;;6.70;99.90;;;;;;5096487;28;20458;-83
2023/10/25 06:14:48;;;;;;;0.60;0.60;;;6.70;99.90;;;;;;5114337;28;20052;-81
2023/10/25 06:17:14;;;;;;;0.50;0.50;;;6.70;99.90;;;;;;5078891;28;20081;-82
2023/10/25 06:19:39;;;;;;;0.68;0.68;;;6.60;99.90;;;;;;5096089;28;20040;-81
2023/10/25 06:22:05;;;;;;;0.50;0.50;;;6.60;99.90;;;;;;5080308;28;20452;-81
2023/10/25 06:24:31;;;;;;;0.50;0.50;;;6.60;99.90;;;;;;5130235;28;20138;-81
2023/10/25 06:26:57;;;;;;;0.40;0.40;;;6.50;99.90;;;;;;5081564;28;20047;-82
2023/10/25 06:29:25;;;;;;;1.05;1.05;;;6.50;99.90;;;;;;5118182;28;20043;-79
2023/10/25 06:31:52;;;;;;;0.50;0.50;;;6.50;99.90;;;;;;5118095;28;20042;-81
2023/10/25 06:34:21;;;;;;;0.85;0.85;;;6.60;99.90;;;;;;5138068;28;20035;-82
2023/10/25 06:36:48;;;;;;;0.63;0.63;;;6.60;99.90;;;;;;5080695;28;20043;-81
2023/10/25 06:39:15;;;;;;;0.70;0.70;;;6.80;99.90;;;;;;5113596;28;20040;-81
2023/10/25 06:41:42;;;;;;;0.50;0.50;;;6.60;99.90;;;;;;5130428;28;20050;-81
2023/10/25 06:44:08;;;;;;;0.60;0.60;;;6.60;99.90;;;;;;5096279;28;20130;-81
2023/10/25 06:46:34;;;;;;;0.47;0.47;;;6.50;99.90;;;;;;5096064;28;20076;-82
2023/10/25 06:49:00;;;;;;;0.50;0.50;;;6.60;99.90;;;;;;5078977;28;20050;-81
2023/10/25 06:51:26;;;;;;;0.60;0.60;;;6.70;99.90;;;;;;5095434;28;20466;-81
2023/10/25 06:53:52;;;;;;;0.40;0.40;;;6.70;99.90;;;;;;5095689;28;20108;-81
2023/10/25 06:56:19;;;;;;;1.67;1.58;;;6.70;99.90;;;;;;5059691;28;20056;-82
2023/10/25 06:58:45;;;;;;;0.60;0.60;;;6.70;99.90;;;;;;5056938;28;20055;-83
2023/10/25 07:01:18;;;;;;;0.70;0.70;;;6.70;99.90;;;;;;5072722;28;20493;-82
2023/10/25 07:03:46;;;;;;;0.60;0.60;;;6.70;99.90;;;;;;5039480;28;20405;-82
2023/10/25 07:06:15;;;;;;;0.50;0.50;;;6.80;99.90;;;;;;5072246;28;20387;-82
2023/10/25 07:08:41;;;;;;;0.50;0.50;;;6.80;99.90;;;;;;5072279;28;20072;-82
2023/10/25 07:11:07;;;;;;;0.35;0.35;;;6.80;99.90;;;;;;5072029;28;20178;-81
2023/10/25 07:13:33;;;;;;;0.80;0.80;;;6.90;99.90;;;;;;5055436;28;20075;-82
2023/10/25 07:15:59;;;;;;;0.82;0.70;;;6.80;99.90;;;;;;5055478;28;20044;-82
2023/10/25 07:18:25;;;;;;;0.85;0.85;;;6.90;99.90;;;;;;5055578;28;20098;-82
2023/10/25 07:20:51;;;;;;;0.50;0.50;;;6.90;99.90;;;;;;5056642;28;20037;-82
2023/10/25 07:23:17;;;;;;;0.50;0.50;;;7.00;99.90;;;;;;5056781;28;20468;-82
2023/10/25 07:25:43;;;;;;;;;;;7.60;99.90;;;;;;5073646;28;20158;-81
2023/10/25 07:28:10;;;;;;;0.57;0.57;;;7.00;99.90;;;;;;5076597;28;19920;-82
2023/10/25 07:30:36;;;;;;;0.43;0.43;;;6.90;99.90;;;;;;5076649;28;20048;-81
2023/10/25 07:33:02;;;;;;;0.65;0.65;;;7.00;99.90;;;;;;5076098;28;20043;-82
2023/10/25 07:35:28;;;;;;;0.70;0.70;;;6.90;99.90;;;;;;5059540;28;20368;-82
2023/10/25 07:37:53;;;;;;;0.73;0.73;;;7.00;99.90;;;;;;5042468;28;20394;-82
2023/10/25 07:40:19;;;;;;;1.10;1.08;;;7.00;99.90;;;;;;5042557;28;20041;-81
2023/10/25 07:42:46;;;;;;;0.50;0.50;;;7.00;99.90;;;;;;5075579;28;20032;-81
2023/10/25 07:45:12;;;;;;;0.50;0.50;;;7.00;99.90;;;;;;5075678;28;20087;-81
2023/10/25 07:47:38;;;;;;;;;;;7.00;99.90;;;;;;5075783;28;20056;-81
2023/10/25 07:50:05;;;;;;;0.55;0.55;;;7.10;99.90;;;;;;5091840;28;19924;-81
2023/10/25 07:52:33;;;;;;;0.55;0.55;;;7.40;99.90;;;;;;5059847;28;20040;-80
2023/10/25 07:54:59;;;;;;;0.50;0.50;;;7.60;99.90;;;;;;5075630;28;20036;-81
2023/10/25 07:57:26;;;;;;;1.05;1.05;;;7.20;99.90;;;;;;5058870;28;20487;-82
2023/10/25 07:59:53;;;;;;;6.82;2.90;;;7.30;99.90;;;;;;5059148;28;20114;-80
2023/10/25 08:02:18;;;;;;;0.85;0.85;;;7.20;99.90;;;;;;5058000;28;20490;-81
2023/10/25 08:04:44;;;;;;;0.50;0.50;;;7.20;99.90;;;;;;5075637;28;20047;-81
2023/10/25 08:07:10;;;;;;;0.60;0.60;;;7.30;99.90;;;;;;5075528;28;20146;-81
2023/10/25 08:09:36;;;;;;;0.70;0.70;;;7.30;99.90;;;;;;5075031;28;20398;-82
2023/10/25 08:12:02;;;;;;;0.50;0.50;;;7.30;99.90;;;;;;5058668;28;20102;-81
2023/10/25 08:14:29;;;;;;;0.50;0.50;;;7.40;99.90;;;;;;5077378;28;20049;-83
2023/10/25 08:16:55;;;;;;;0.70;0.70;;;7.50;99.90;;;;;;5046296;28;20052;-82
2023/10/25 08:19:21;;;;;;;0.60;0.60;;;7.50;99.90;;;;;;5064696;28;20032;-82
2023/10/25 08:21:47;;;;;;;0.70;0.70;;;7.60;99.90;;;;;;5097302;28;20029;-81
2023/10/25 08:24:12;;;;;;;1.55;1.55;;;7.70;99.90;;;;;;5067320;28;20051;-81
2023/10/25 08:26:39;;;;;;;0.57;0.57;;;7.70;99.90;;;;;;5059886;28;20055;-81
2023/10/25 08:29:06;;;;;;;0.50;0.50;;;8.10;99.90;;;;;;5076179;28;20067;-81
2023/10/25 08:31:35;;;;;;;0.55;0.55;;;7.90;99.90;;;;;;5074703;28;20438;-81
2023/10/25 08:34:01;;;;;;;1.00;1.00;;;7.90;99.90;;;;;;5057786;28;20052;-81
2023/10/25 08:36:35;;;;;;;;;;;8.00;99.90;;;;;;5075173;28;20052;-81
2023/10/25 08:39:02;;;;;;;0.85;0.60;;;8.10;99.90;;;;;;5090711;28;19971;-81
2023/10/25 08:41:28;;;;;;;0.40;0.40;;;8.20;99.90;;;;;;5075096;28;20048;-81
2023/10/25 08:43:54;;;;;;;;;;;8.20;99.90;;;;;;5074280;28;20120;-81
2023/10/25 08:46:20;;;;;;;0.47;0.47;;;8.30;99.90;;;;;;5074620;28;20014;-82
2023/10/25 08:48:47;;;;;;;1.52;1.42;;;8.40;99.90;;;;;;5076136;28;20056;-82
2023/10/25 08:51:16;;;;;;;0.82;0.82;;;8.40;99.90;;;;;;5075419;28;20087;-81
2023/10/25 08:53:42;;;;;;;0.50;0.50;;;8.50;99.90;;;;;;5074268;28;20041;-81
2023/10/25 08:56:08;;;;;;;0.65;0.65;;;8.60;99.90;;;;;;5074100;28;20055;-81
2023/10/25 08:58:34;;;;;;;0.40;0.40;;;8.70;99.90;;;;;;5074560;28;20073;-81
2023/10/25 09:01:00;;;;;;;0.95;0.95;;;8.80;99.90;;;;;;5074524;28;20127;-81
2023/10/25 09:03:32;;;;;;;;;;;8.80;99.90;;;;;;5074325;28;20044;-82
2023/10/25 09:06:02;;;;;;;1.13;1.13;;;8.80;99.90;;;;;;5074473;28;20025;-81
2023/10/25 09:08:28;;;;;;;0.50;0.50;;;8.90;99.90;;;;;;5058039;28;20476;-81
2023/10/25 09:11:01;;;;;;;0.40;0.40;;;9.00;99.90;;;;;;5058067;28;20131;-81
2023/10/25 09:13:27;;;;;;;0.82;0.82;;;9.00;99.90;;;;;;5074469;28;20048;-82
2023/10/25 09:16:02;;;;;;;;;;;9.20;99.90;;;;;;5074460;28;20037;-81
2023/10/25 09:18:28;;;;;;;0.57;0.57;;;9.30;99.90;;;;;;5074043;28;19946;-82
2023/10/25 09:20:54;;;;;;;0.68;0.68;;;9.40;99.90;;;;;;5073617;28;20040;-81
2023/10/25 09:23:19;;;;;;;;;;;9.40;99.90;;;;;;5072690;28;20052;-81
2023/10/25 09:25:45;;;;;;;0.70;0.70;;;9.50;99.90;;;;;;5056859;28;19931;-81
2023/10/25 09:28:15;;;;;;;0.57;0.57;;;9.60;99.90;;;;;;5074085;28;20051;-81
2023/10/25 09:30:42;;;;;;;0.60;0.60;;;9.70;99.90;;;;;;5073885;28;20052;-81
2023/10/25 09:33:11;;;;;;;0.50;0.50;;;9.70;99.90;;;;;;5073383;28;20048;-82
2023/10/25 09:35:37;;;;;;;0.40;0.40;;;9.80;99.90;;;;;;5056881;28;20178;-81
2023/10/25 09:38:03;;;;;;;0.45;0.45;;;9.90;99.90;;;;;;5074169;28;20479;-81
2023/10/25 09:40:29;;;;;;;1.00;0.70;;;9.90;99.90;;;;;;5073581;28;20040;-81
2023/10/25 09:42:59;;;;;;;0.32;0.32;;;10.00;99.90;;;;;;5073596;28;20390;-80
2023/10/25 09:45:31;;;;;;;0.50;0.50;;;10.00;99.90;;;;;;5056897;28;20040;-82
2023/10/25 09:48:04;;;;;;;0.40;0.40;;;10.10;99.90;;;;;;5073779;28;20044;-81
2023/10/25 09:50:36;;;;;;;0.38;0.38;;;10.20;99.90;;;;;;5072764;28;20111;-82
2023/10/25 09:53:16;;;;;;;0.40;0.40;;;10.30;99.90;;;;;;5073020;28;20044;-81
2023/10/25 09:55:54;;;;;;;0.40;0.40;;;10.30;99.90;;;;;;5073428;28;20110;-82
2023/10/25 09:58:24;;;;;;;0.30;0.30;;;10.40;99.90;;;;;;5074386;28;20523;-82
2023/10/25 10:00:50;;;;;;;0.30;0.30;;;10.30;99.90;;;;;;5073312;28;20051;-83
2023/10/25 10:03:30;;;;;;;0.40;0.40;;;10.40;99.90;;;;;;5072395;28;20127;-80
2023/10/25 10:06:07;;;;;;;0.45;0.45;;;10.40;99.90;;;;;;5072401;28;20052;-78
2023/10/25 10:08:42;;;;;;;0.57;0.40;;;10.50;99.90;;;;;;5075157;28;20424;-79
2023/10/25 10:11:13;;;;;;;0.40;0.40;;;10.50;99.90;;;;;;5092090;28;20076;-82
2023/10/25 10:13:39;;;;;;;0.88;0.68;;;10.60;99.90;;;;;;5079570;28;20044;-81
2023/10/25 10:16:11;;;;;;;0.40;0.40;;;10.20;99.90;;;;;;5058292;28;20459;-80
2023/10/25 10:18:41;;;;;;;0.25;0.25;;;10.70;99.90;;;;;;5074668;28;20048;-81
2023/10/25 10:21:09;;;;;;;0.38;0.38;;;10.80;99.90;;;;;;5073500;28;20048;-81
2023/10/25 10:23:40;;;;;;;0.40;0.40;;;10.90;99.90;;;;;;5072926;28;20478;-81
2023/10/25 10:26:07;;;;;;;0.60;0.60;;;11.00;99.90;;;;;;5055591;28;20059;-81
2023/10/25 10:28:44;;;;;;;0.35;0.35;;;11.10;99.90;;;;;;5073375;28;20052;-81
2023/10/25 10:31:11;;;;;;;0.30;0.30;;;11.10;99.90;;;;;;5073005;28;20065;-83
2023/10/25 10:33:47;;;;;;;0.30;0.30;;;11.20;99.90;;;;;;5055629;28;20051;-81
2023/10/25 10:36:31;;;;;;;0.40;0.40;;;11.30;99.90;;;;;;5072530;28;20059;-82
2023/10/25 10:39:17;;;;;;;0.47;0.47;;;11.40;99.90;;;;;;5073609;28;20105;-81
2023/10/25 10:41:44;;;;;;;0.43;0.43;;;11.50;99.90;;;;;;5040089;28;20051;-82
2023/10/25 10:44:11;;;;;;;0.40;0.40;;;11.60;99.90;;;;;;5073294;28;20057;-81
2023/10/25 10:47:01;;;;;;;0.50;0.50;;;11.70;99.90;;;;;;5055501;28;20048;-82
2023/10/25 10:49:29;;;;;;;0.70;0.68;;;11.70;99.90;;;;;;5056633;28;20087;-81
2023/10/25 10:51:56;;;;;;;0.30;0.30;;;11.70;99.90;;;;;;5072196;28;20056;-82
2023/10/25 10:54:22;;;;;;;0.55;0.55;;;11.70;99.90;;;;;;5072606;28;20135;-81
2023/10/25 10:56:49;;;;;;;0.38;0.38;;;11.80;99.90;;;;;;5112797;28;20070;-81
2023/10/25 10:59:15;;;;;;;0.50;0.50;;;11.90;99.90;;;;;;5095887;28;20123;-81
2023/10/25 11:01:42;;;;;;;;;;;11.90;99.90;;;;;;5081455;28;20044;-82
2023/10/25 11:04:08;;;;;;;;;;;12.00;99.90;;;;;;5100480;28;19926;-82
2023/10/25 11:06:33;;;;;;;0.30;0.30;;;12.10;99.90;;;;;;5134158;27;19924;-81
2023/10/25 11:08:59;;;;;;;0.35;0.35;;;12.20;99.90;;;;;;5099411;28;20124;-81
2023/10/25 11:11:25;;;;;;;0.28;0.28;;;12.30;99.90;;;;;;5099658;28;20052;-81
2023/10/25 11:13:51;;;;;;;;;;;12.40;99.90;;;;;;5099770;28;20039;-81
2023/10/25 11:16:17;;;;;;;0.20;0.20;;;12.50;99.90;;;;;;5099739;28;20418;-81
2023/10/25 11:18:43;;;;;;;0.40;0.40;;;12.60;99.90;;;;;;5116449;28;20059;-82
2023/10/25 11:21:12;;;;;;;0.20;0.20;;;12.70;99.90;;;;;;5117804;28;20114;-81
2023/10/25 11:23:37;;;;;;;0.93;0.93;;;12.80;99.90;;;;;;5083148;28;20375;-81
2023/10/25 11:26:04;;;;;;;0.40;0.40;;;12.90;99.90;;;;;;5100022;28;20047;-80
2023/10/25 11:28:30;;;;;;;0.30;0.30;;;13.00;99.90;;;;;;5100150;28;20052;-81
2023/10/25 11:31:03;;;;;;;1.15;1.15;;;13.10;99.90;;;;;;5133416;27;20104;-81
2023/10/25 11:33:29;;;;;;;0.68;0.68;;;13.10;99.90;;;;;;5099407;28;20096;-81
2023/10/25 11:35:56;;;;;;;0.30;0.30;;;13.10;99.90;;;;;;5099481;28;20131;-81
2023/10/25 11:38:24;;;;;;;0.30;0.30;;;13.10;99.90;;;;;;5099354;28;20062;-81
2023/10/25 11:40:49;;;;;;;0.20;0.20;;;13.10;99.90;;;;;;5099124;28;20370;-81
2023/10/25 11:43:15;;;;;;;0.30;0.30;;;13.20;99.90;;;;;;5099831;28;20130;-81
2023/10/25 11:45:41;;;;;;;0.30;0.30;;;13.20;99.90;;;;;;5099283;28;20100;-81
2023/10/25 11:48:07;;;;;;;;;;;13.10;99.90;;;;;;5082852;28;20454;-81
2023/10/25 11:50:34;;;;;;;0.40;0.40;;;13.00;99.90;;;;;;5082566;28;19943;-81
2023/10/25 11:53:00;;;;;;;0.17;0.17;;;13.00;99.90;;;;;;5099126;28;20044;-81
2023/10/25 11:55:27;;;;;;;0.20;0.20;;;13.00;99.90;;;;;;5135213;27;20139;-80
2023/10/25 11:57:53;;;;;;;0.22;0.22;;;12.90;99.90;;;;;;5118478;28;20139;-81
2023/10/25 12:00:20;;;;;;;0.20;0.20;;;13.00;99.90;;;;;;5151567;27;20035;-81
2023/10/25 12:02:45;;;;;;;;;;;13.00;99.90;;;;;;5140335;28;20087;-81
2023/10/25 12:05:12;;;;;;;0.38;0.38;;;13.00;99.90;;;;;;5155489;27;19926;-81
2023/10/25 12:07:38;;;;;;;0.30;0.30;;;13.00;99.90;;;;;;5099976;28;20062;-81
2023/10/25 12:10:07;;;;;;;;;;;13.00;99.90;;;;;;5118249;27;20059;-81
2023/10/25 12:12:34;;;;;;;0.30;0.30;;;13.00;99.90;;;;;;5098749;28;19919;-81
2023/10/25 12:15:00;;;;;;;0.35;0.35;;;13.00;99.90;;;;;;5081973;28;20047;-81
2023/10/25 12:17:25;;;;;;;0.30;0.30;;;13.00;99.90;;;;;;5098871;28;20051;-81
2023/10/25 12:19:51;;;;;;;0.55;0.55;;;13.00;99.90;;;;;;5117428;28;20520;-82
2023/10/25 12:22:18;;;;;;;0.20;0.20;;;13.00;99.90;;;;;;5097860;28;20040;-80
2023/10/25 12:24:46;;;;;;;0.28;0.28;;;12.90;99.90;;;;;;5098505;28;20176;-81
2023/10/25 12:27:12;;;;;;;0.30;0.30;;;12.90;99.90;;;;;;5098034;28;20467;-81
2023/10/25 12:29:39;;;;;;;0.55;0.55;;;12.80;99.90;;;;;;5098950;28;20536;-82
2023/10/25 12:32:05;;;;;;;0.30;0.30;;;12.70;99.90;;;;;;5098853;28;20047;-81
2023/10/25 12:34:31;;;;;;;1.48;0.88;;;12.70;99.90;;;;;;5098905;28;20035;-81
2023/10/25 12:36:58;;;;;;;0.40;0.40;;;12.60;99.90;;;;;;5098928;28;20039;-81
2023/10/25 12:39:24;;;;;;;1.00;0.60;;;12.50;99.90;;;;;;5116251;28;20051;-83
2023/10/25 12:41:50;;;;;;;0.38;0.38;;;12.40;99.90;;;;;;5098471;28;20039;-81
2023/10/25 12:44:16;;;;;;;0.60;0.35;;;12.40;99.90;;;;;;5115710;28;20056;-81
2023/10/25 12:46:42;;;;;;;;;;;12.30;99.90;;;;;;5080959;28;20450;-81
2023/10/25 12:49:09;;;;;;;1.95;0.95;;;12.30;99.90;;;;;;5098179;28;19920;-81
2023/10/25 12:51:35;;;;;;;3.60;0.60;;;12.30;99.90;;;;;;5114884;28;20054;-81
2023/10/25 12:54:02;;;;;;;0.40;0.40;;;12.30;99.90;;;;;;5098059;28;20039;-81
2023/10/25 12:56:29;;;;;;;0.65;0.65;;;12.30;99.90;;;;;;5116491;28;20056;-81